Time;durP1;ratioP1;P1;durP2;ratioP2;P2;SDS_P1;SDS_P2;PMS_P1;PMS_P2;Temp;Humidity;BMP_temperature;BMP_pressure;BME280_temperature;BME280_humidity;BME280_pressure;Samples;Min_cycle;Max_cycle;Signal;HPM_P1;HPM_P2
2022/07/14 00:04:49;;;;;;;;;;;22.50;82.00;;;21.64;43.75;95972.63;10481131;28;1855;-77
2022/07/14 00:09:52;;;;;;;;;;;22.50;82.30;;;21.56;43.95;95974.28;10478077;28;1913;-76
2022/07/14 00:14:57;;;;;;;;;;;22.50;82.70;;;21.52;44.41;95976.13;10482390;28;1987;-78
2022/07/14 00:19:59;;;;;;;;;;;22.40;83.20;;;21.56;44.76;95976.22;10480459;28;1950;-78
2022/07/14 00:25:02;;;;;;;;;;;22.40;83.40;;;21.47;45.00;95967.34;10475175;28;1906;-77
2022/07/14 00:30:05;;;;;;;;;;;22.30;83.80;;;21.43;45.41;95956.25;10471501;28;1934;-78
2022/07/14 00:35:08;;;;;;;;;;;22.30;84.10;;;21.40;45.89;95947.97;10480980;28;1894;-79
2022/07/14 00:40:10;;;;;;;;;;;22.30;84.70;;;21.41;46.33;95944.09;10478567;28;2082;-77
2022/07/14 00:45:13;;;;;;;;;;;22.30;85.10;;;21.38;47.11;95940.09;10495303;28;1865;-77
2022/07/14 00:50:23;;;;;;;;;;;22.20;85.80;;;21.36;47.92;95938.81;10492828;28;1900;-78
2022/07/14 00:55:26;;;;;;;;;;;22.20;86.50;;;21.39;48.05;95941.69;10478007;28;1886;-77
2022/07/14 01:00:30;;;;;;;;;;;22.20;86.90;;;21.35;48.75;95940.75;10471182;28;1812;-77
2022/07/14 01:05:33;;;;;;;;;;;22.20;87.50;;;21.37;49.51;95949.41;10497178;28;1864;-78
2022/07/14 01:10:36;;;;;;;;;;;22.20;88.00;;;21.33;49.98;95939.50;10476764;28;1929;-78
2022/07/14 01:15:40;;;;;;;;;;;22.20;88.50;;;21.29;50.20;95950.31;10475738;28;1886;-78
2022/07/14 01:20:47;;;;;;;;;;;22.10;88.60;;;21.24;50.77;95961.44;10472469;28;1910;-78
2022/07/14 01:25:51;;;;;;;;;;;22.10;89.00;;;21.26;50.83;95967.38;10494456;28;1879;-77
2022/07/14 01:30:55;;;;;;;;;;;22.10;89.30;;;21.25;51.23;95971.25;10491591;28;1918;-77
2022/07/14 01:36:12;;;;;;;;;;;22.10;89.60;;;21.26;51.24;95959.19;10501299;28;1847;-79
2022/07/14 01:41:24;;;;;;;;;;;22.10;89.60;;;21.28;50.93;95943.22;10505337;28;1838;-76
2022/07/14 01:46:27;;;;;;;;;;;22.10;89.60;;;21.20;51.07;95935.91;10488343;28;1833;-77
2022/07/14 01:51:30;;;;;;;;;;;22.10;89.70;;;21.20;51.61;95924.97;10490722;28;1977;-78
2022/07/14 01:56:32;;;;;;;;;;;22.10;90.00;;;21.13;51.71;95930.22;10486940;28;1981;-75
2022/07/14 02:01:42;;;;;;;;;;;22.00;90.10;;;21.03;51.69;95915.81;10503600;28;1849;-78
2022/07/14 02:06:46;;;;;;;;;;;22.00;90.10;;;21.01;51.53;95900.91;10488436;28;1981;-78
2022/07/14 02:17:09;;;;;;;;;;;21.80;90.10;;;20.91;51.97;95926.69;10487235;28;1827;-76
2022/07/14 02:22:12;;;;;;;;;;;21.80;90.30;;;20.84;52.57;95934.66;10499867;28;1806;-77
2022/07/14 02:27:15;;;;;;;;;;;21.70;90.80;;;20.70;53.09;95929.47;10472722;28;1930;-74
2022/07/14 02:32:18;;;;;;;;;;;21.70;91.20;;;20.60;53.65;95940.00;10503674;22;1896;-78
2022/07/14 02:37:20;;;;;;;;;;;21.60;91.30;;;20.56;53.46;95942.59;10449963;28;2099;-75
2022/07/14 02:42:24;;;;;;;;;;;21.50;91.40;;;20.44;53.40;95932.38;10461593;28;2108;-77
2022/07/14 02:47:26;;;;;;;;;;;21.40;91.30;;;20.30;53.78;95942.75;10450859;28;2080;-78
2022/07/14 02:52:29;;;;;;;;;;;21.30;91.30;;;20.22;53.91;95938.13;10456561;28;1787;-76
2022/07/14 02:57:32;;;;;;;;;;;21.20;91.50;;;20.25;53.66;95935.56;10457038;28;1852;-76
2022/07/14 03:02:35;;;;;;;;;;;21.20;91.60;;;20.08;54.88;95941.13;10455624;28;1812;-77
2022/07/14 03:07:38;;;;;;;;;;;21.10;92.10;;;20.02;55.38;95933.44;10439005;28;1977;-78
2022/07/14 03:12:41;;;;;;;;;;;21.00;92.50;;;20.05;54.79;95932.81;10458679;28;1833;-77
2022/07/14 03:17:43;;;;;;;;;;;21.00;92.70;;;20.07;55.18;95923.16;10457183;28;1825;-78
2022/07/14 03:22:46;;;;;;;;;;;21.00;93.00;;;20.14;55.26;95928.88;10460335;28;1960;-78
2022/07/14 03:27:49;;;;;;;;;;;21.00;93.20;;;20.25;55.22;95932.03;10452566;28;1910;-77
2022/07/14 03:32:52;;;;;;;;;;;21.10;93.40;;;20.26;54.62;95936.34;10459327;28;1393;-78
2022/07/14 03:37:55;;;;;;;;;;;21.10;93.10;;;20.13;55.11;95942.88;10442281;28;1715;-77
2022/07/14 03:43:18;;;;;;;;;;;21.10;93.10;;;19.99;55.46;95932.19;10454832;28;1928;-78
2022/07/14 03:48:21;;;;;;;;;;;21.00;93.10;;;20.03;55.72;95929.59;10436346;28;2039;-78
2022/07/14 03:53:24;;;;;;;;;;;20.90;93.60;;;20.03;56.24;95929.59;10449270;28;1835;-77
2022/07/14 03:58:27;;;;;;;;;;;20.90;94.00;;;19.87;56.99;95919.25;10451676;28;2001;-77
2022/07/14 04:03:32;;;;;;;;;;;20.90;94.20;;;19.97;57.38;95923.53;10418578;28;1991;-77
2022/07/14 04:08:35;;;;;;;;;;;20.80;94.80;;;20.07;57.44;95927.81;10456391;28;1909;-77
2022/07/14 04:13:38;;;;;;;;;;;20.90;95.20;;;20.29;57.26;95932.16;10438452;28;1849;-77
2022/07/14 04:18:41;;;;;;;;;;;21.00;95.20;;;20.44;56.14;95948.75;10444775;28;1851;-77
2022/07/14 04:23:44;;;;;;;;;;;21.10;94.80;;;20.44;56.70;95945.22;10438604;28;1866;-78
2022/07/14 04:28:47;;;;;;;;;;;21.30;94.90;;;20.35;56.70;95945.28;10461246;28;1950;-77
2022/07/14 04:33:50;;;;;;;;;;;21.30;94.90;;;20.38;56.69;95955.53;10437152;28;1847;-77
2022/07/14 04:38:53;;;;;;;;;;;21.20;94.90;;;21.17;54.60;95958.44;10461244;28;1875;-78
2022/07/14 04:43:57;;;;;;;;;;;21.50;94.90;;;22.55;49.25;95947.75;10470985;28;1934;-78
2022/07/14 04:54:35;;;;;;;;;;;23.20;91.10;;;23.85;45.91;95948.97;10381367;28;1759;-77
2022/07/14 04:59:38;;;;;;;;;;;24.00;89.60;;;23.20;47.43;95942.97;10431208;28;1793;-79
2022/07/14 05:04:41;;;;;;;;;;;24.00;89.00;;;22.83;48.22;95945.81;10450960;28;1894;-77
2022/07/14 05:09:44;;;;;;;;;;;23.70;89.50;;;22.68;48.80;95949.31;10464649;28;1977;-77
2022/07/14 05:14:46;;;;;;;;;;;23.40;89.90;;;22.49;49.24;95951.88;10447491;28;1821;-78
2022/07/14 05:19:50;;;;;;;;;;;23.30;90.40;;;22.29;49.72;95959.88;10432503;28;1739;-79
2022/07/14 05:24:53;;;;;;;;;;;23.10;90.50;;;22.15;50.55;95958.66;10442680;28;1866;-77
2022/07/14 05:29:56;;;;;;;;;;;23.00;91.20;;;22.44;48.83;95952.91;10451231;28;2045;-74
2022/07/14 05:34:59;;;;;;;;;;;23.00;90.60;;;23.37;47.54;95958.31;10438329;28;1869;-77
2022/07/14 05:40:02;;;;;;;;;;;23.50;90.60;;;24.04;45.85;95956.50;10461452;28;1920;-77
2022/07/14 05:45:05;;;;;;;;;;;24.20;89.20;;;24.48;44.39;95956.38;10450972;28;1859;-76
2022/07/14 05:50:08;;;;;;;;;;;24.70;88.10;;;24.93;42.36;95943.97;10441759;28;2041;-80
2022/07/14 05:55:13;;;;;;;;;;;25.10;86.20;;;24.70;42.98;95936.47;10458669;28;1956;-82
2022/07/14 06:00:16;;;;;;;;;;;25.30;85.70;;;25.14;41.63;95938.94;10487683;28;1790;-81
2022/07/14 06:05:19;;;;;;;;;;;25.60;84.40;;;25.43;40.75;95942.22;10472494;28;1881;-80
2022/07/14 06:10:22;;;;;;;;;;;25.80;83.70;;;25.29;40.66;95934.50;10429535;28;1910;-79
2022/07/14 06:15:26;;;;;;;;;;;26.00;83.30;;;25.41;39.15;95941.81;10441538;28;1948;-80
2022/07/14 06:20:29;;;;;;;;;;;26.00;82.10;;;25.53;38.54;95936.13;10442487;28;1918;-80
2022/07/14 06:25:31;;;;;;;;;;;26.10;81.20;;;25.55;37.88;95931.03;10456406;28;1915;-80
2022/07/14 06:30:35;;;;;;;;;;;26.20;80.40;;;25.97;36.77;95930.22;10438569;28;1910;-79
2022/07/14 06:35:38;;;;;;;;;;;26.40;79.70;;;26.20;36.77;95925.44;10439335;28;1942;-80
2022/07/14 06:41:00;;;;;;;;;;;26.70;79.30;;;26.76;35.38;95916.41;10451319;28;1867;-79
2022/07/14 06:46:03;;;;;;;;;;;27.10;78.50;;;27.09;34.37;95912.91;10457351;28;1881;-79
2022/07/14 06:51:07;;;;;;;;;;;27.50;77.60;;;27.80;33.03;95904.56;10457383;28;2020;-79
2022/07/14 06:56:24;;;;;;;;;;;27.90;76.40;;;28.32;32.42;95902.63;10459408;22;1868;-78
2022/07/14 07:01:27;;;;;;;;;;;28.50;75.80;;;28.29;31.80;95906.13;10443532;28;2177;-81
2022/07/14 07:06:46;;;;;;;;;;;28.50;75.00;;;28.34;28.93;95897.50;10448152;28;2093;-80
2022/07/14 07:11:50;;;;;;;;;;;28.70;71.90;;;28.79;29.10;95893.38;10445457;28;1973;-78
2022/07/14 07:16:53;;;;;;;;;;;28.90;72.20;;;29.77;28.93;95884.16;10433757;28;1953;-79
2022/07/14 07:21:57;;;;;;;;;;;29.30;72.90;;;30.65;26.33;95886.03;10438161;28;1877;-79
2022/07/14 07:27:00;;;;;;;;;;;30.40;70.00;;;31.40;26.18;95873.88;10439136;28;1947;-78
2022/07/14 07:32:03;;;;;;;;;;;31.20;69.70;;;30.87;25.26;95886.03;10441353;28;1914;-78
2022/07/14 07:37:07;;;;;;;;;;;31.10;67.90;;;30.20;25.03;95882.19;10446906;28;1875;-78
2022/07/14 07:42:29;;;;;;;;;;;30.80;66.20;;;30.73;25.58;95877.72;10438112;28;1881;-79
2022/07/14 07:47:32;;;;;;;;;;;31.00;67.70;;;31.37;24.90;95871.91;10441861;28;1871;-78
2022/07/14 07:52:38;;;;;;;;;;;31.40;66.90;;;31.10;25.49;95861.31;10447044;28;1919;-77
2022/07/14 07:57:43;;;;;;;;;;;31.20;69.70;;;30.75;27.41;95856.72;10446328;28;1914;-77
2022/07/14 08:02:48;;;;;;;;;;;31.40;68.90;;;31.39;26.77;95852.84;10446063;28;1880;-77
2022/07/14 08:07:52;;;;;;;;;;;31.50;68.10;;;31.45;25.98;95843.66;10435994;28;1872;-77
2022/07/14 08:12:55;;;;;;;;;;;31.70;67.50;;;31.28;26.13;95846.56;10434027;28;1985;-77
2022/07/14 08:17:59;;;;;;;;;;;31.80;67.20;;;31.38;24.22;95842.94;10436018;28;1851;-76
2022/07/14 08:23:02;;;;;;;;;;;31.80;65.40;;;31.29;23.02;95845.34;10434631;28;1799;-77
2022/07/14 08:28:05;;;;;;;;;;;31.70;63.00;;;31.15;24.83;95824.78;10439155;28;1820;-79
2022/07/14 08:33:08;;;;;;;;;;;31.80;65.00;;;30.92;25.24;95821.75;10435048;28;1914;-76
2022/07/14 08:38:11;;;;;;;;;;;31.60;65.10;;;30.95;24.31;95816.19;10434505;28;1880;-78
2022/07/14 08:43:14;;;;;;;;;;;31.50;64.10;;;30.72;23.99;95806.78;10435523;28;1832;-78
2022/07/14 08:48:19;;;;;;;;;;;31.50;63.50;;;31.18;23.31;95801.00;10440502;28;2078;-76
2022/07/14 08:53:22;;;;;;;;;;;31.50;62.90;;;31.25;22.73;95811.28;10443290;28;1905;-76
2022/07/14 08:58:25;;;;;;;;;;;31.60;61.50;;;31.26;22.00;95801.75;10431812;28;1860;-78
2022/07/14 09:03:35;;;;;;;;;;;31.80;61.00;;;31.49;22.25;95801.97;10438205;28;1778;-79
2022/07/14 09:09:00;;;;;;;;;;;31.90;60.90;;;31.22;22.99;95805.31;10436863;28;1887;-77
2022/07/14 09:14:03;;;;;;;;;;;31.90;61.40;;;31.29;23.38;95789.81;10436523;28;1890;-78
2022/07/14 09:19:07;;;;;;;;;;;31.80;62.00;;;31.50;23.15;95786.09;10434409;28;1881;-78
2022/07/14 09:24:09;;;;;;;;;;;31.80;62.20;;;31.60;23.65;95780.44;10437622;28;1860;-76
2022/07/14 09:29:13;;;;;;;;;;;32.00;63.00;;;31.75;23.83;95761.66;10436438;28;2014;-78
2022/07/14 09:34:16;;;;;;;;;;;32.20;63.40;;;31.88;22.99;95759.19;10438376;28;1808;-78
2022/07/14 09:39:20;;;;;;;;;;;32.30;62.00;;;31.73;22.09;95758.50;10439493;28;1856;-78
2022/07/14 09:44:22;;;;;;;;;;;32.40;60.60;;;31.52;22.24;95753.94;10438002;28;2013;-79
2022/07/14 09:49:27;;;;;;;;;;;32.10;60.80;;;31.81;20.72;95756.47;10459265;28;1890;-81
2022/07/14 09:54:30;;;;;;;;;;;32.20;59.10;;;31.98;21.16;95741.59;10470922;28;1756;-81
2022/07/14 09:59:33;;;;;;;;;;;32.40;59.50;;;32.09;20.43;95741.50;10456424;28;1882;-80
2022/07/14 10:04:36;;;;;;;;;;;32.50;58.70;;;31.55;22.47;95730.88;10457059;28;2041;-79
2022/07/14 10:09:39;;;;;;;;;;;32.30;60.10;;;31.69;21.89;95725.19;10450191;28;1989;-80
2022/07/14 10:14:42;;;;;;;;;;;32.20;60.00;;;31.82;23.15;95717.16;10457439;28;1822;-80
2022/07/14 10:19:44;;;;;;;;;;;32.40;61.20;;;32.21;21.39;95710.38;10457182;28;1807;-78
2022/07/14 10:24:48;;;;;;;;;;;32.60;59.60;;;32.03;22.85;95709.78;10451358;28;1936;-80
2022/07/14 10:29:51;;;;;;;;;;;32.60;60.60;;;32.15;21.61;95707.25;10464169;28;1976;-80
2022/07/14 10:40:28;;;;;;;;;;;;;;;;;;;;;
2022/07/14 10:45:38;;;;;;;;;;;32.90;58.70;;;32.59;19.94;95682.47;10436674;28;2302;-80
2022/07/14 10:56:48;;;;;;;;;;;34.60;57.00;;;34.41;19.76;95666.16;10681563;22;2148;-78
2022/07/14 11:02:31;;;;;;;;;;;35.90;57.20;;;34.57;18.10;95676.63;10401129;28;1940;-78
2022/07/14 11:07:35;;;;;;;;;;;36.60;55.00;;;34.83;19.29;95664.44;10393706;28;1871;-78
2022/07/14 11:12:38;;;;;;;;;;;36.70;55.60;;;34.56;17.95;95661.09;10400335;28;1979;-78
2022/07/14 11:17:40;;;;;;;;;;;36.40;54.40;;;34.17;18.32;95662.69;10398998;28;1933;-77
2022/07/14 11:22:43;;;;;;;;;;;36.10;54.40;;;33.92;18.86;95640.09;10394852;28;1878;-78
2022/07/14 11:27:48;;;;;;;;;;;35.70;54.50;;;33.36;19.69;95643.47;10403205;28;1794;-77
2022/07/14 11:32:51;;;;;;;;;;;34.90;55.10;;;33.65;19.30;95643.75;10396119;28;1976;-78
2022/07/14 11:37:54;;;;;;;;;;;35.10;55.80;;;33.88;20.19;95629.78;10396313;28;1835;-80
2022/07/14 11:42:58;;;;;;;;;;;35.20;56.50;;;33.52;20.66;95638.03;10391455;28;1858;-77
2022/07/14 11:48:00;;;;;;;;;;;34.80;56.20;;;33.06;20.66;95624.91;10396639;28;1864;-77
2022/07/14 11:53:03;;;;;;;;;;;34.20;56.60;;;32.88;19.74;95624.41;10400079;28;1971;-77
2022/07/14 11:58:06;;;;;;;;;;;33.80;55.50;;;33.17;18.58;95614.38;10395507;28;1848;-78
2022/07/14 12:03:09;;;;;;;;;;;33.70;54.40;;;33.41;17.90;95606.03;10392477;28;2260;-77
2022/07/14 12:08:14;;;;;;;;;;;33.90;53.60;;;33.47;18.56;95610.69;10395446;28;1851;-79
2022/07/14 12:13:17;;;;;;;;;;;34.20;54.50;;;33.53;18.01;95591.44;10386340;28;2011;-78
2022/07/14 12:18:20;;;;;;;;;;;34.20;53.70;;;33.80;18.72;95582.97;10392132;28;1874;-79
2022/07/14 12:23:23;;;;;;;;;;;34.40;54.50;;;33.85;17.92;95574.88;10408588;28;1843;-76
2022/07/14 12:28:26;;;;;;;;;;;34.60;53.20;;;33.68;17.79;95570.44;10423151;28;1784;-79
2022/07/14 12:33:29;;;;;;;;;;;34.50;53.40;;;33.31;18.19;95575.09;10412350;28;1926;-77
2022/07/14 12:38:32;;;;;;;;;;;34.30;53.40;;;33.45;17.20;95571.28;10397225;28;1945;-77
2022/07/14 12:43:35;;;;;;;;;;;34.20;52.70;;;33.44;17.88;95566.16;10387365;28;1814;-78
2022/07/14 12:48:39;;;;;;;;;;;34.20;53.00;;;33.62;18.20;95544.28;10387484;28;1983;-78
2022/07/14 12:53:41;;;;;;;;;;;34.30;53.40;;;33.45;18.44;95534.28;10390053;28;1914;-77
2022/07/14 12:58:46;;;;;;;;;;;34.40;53.60;;;33.50;18.39;95542.94;10389884;28;1972;-77
2022/07/14 13:03:49;;;;;;;;;;;34.30;53.40;;;33.48;17.30;95527.88;10391826;28;1939;-78
2022/07/14 13:08:51;;;;;;;;;;;34.30;52.50;;;33.47;18.65;95531.88;10390967;28;1866;-78
2022/07/14 13:13:54;;;;;;;;;;;34.40;53.50;;;33.51;18.66;95513.06;10391292;28;1942;-78
2022/07/14 13:18:57;;;;;;;;;;;34.50;53.40;;;33.80;16.87;95516.06;10393079;28;1854;-78
2022/07/14 13:24:00;;;;;;;;;;;34.50;51.70;;;33.26;17.89;95508.75;10393387;28;1890;-77
2022/07/14 13:29:03;;;;;;;;;;;34.10;52.50;;;33.61;18.03;95503.72;10397468;28;1908;-78
2022/07/14 13:34:06;;;;;;;;;;;34.20;53.40;;;33.81;17.52;95500.91;10404795;28;1958;-79
2022/07/14 13:39:09;;;;;;;;;;;34.40;52.50;;;33.71;17.70;95483.16;10422571;28;1870;-78
2022/07/14 13:44:20;;;;;;;;;;;34.40;52.50;;;33.84;17.85;95472.91;10441162;28;1973;-78
2022/07/14 13:49:23;;;;;;;;;;;34.50;52.70;;;34.15;18.32;95464.28;10449147;28;1917;-78
2022/07/14 13:54:26;;;;;;;;;;;34.70;53.30;;;33.82;18.49;95466.22;10442468;28;1993;-77
2022/07/14 13:59:29;;;;;;;;;;;34.70;53.00;;;33.85;19.42;95454.22;10407428;28;1808;-79
2022/07/14 14:04:32;;;;;;;;;;;34.60;54.40;;;33.85;18.76;95457.78;10408550;28;1962;-81
2022/07/14 14:09:38;;;;;;;;;;;35.20;54.00;;;33.85;19.44;95462.59;10403777;28;1877;-79
2022/07/14 14:14:41;;;;;;;;;;;34.60;54.40;;;33.71;19.32;95457.31;10408737;28;1918;-81
2022/07/14 14:25:54;;;;;;;;;;;34.50;54.80;;;33.68;18.71;95450.59;10409596;28;1880;-82
2022/07/14 14:30:56;;;;;;;;;;;34.50;53.20;;;33.93;19.96;95446.50;10410392;28;1964;-79
2022/07/14 14:35:59;;;;;;;;;;;34.60;54.10;;;33.94;19.23;95445.28;10419078;28;1922;-81
2022/07/14 14:41:02;;;;;;;;;;;34.80;53.80;;;34.40;18.35;95425.41;10413044;28;1854;-81
2022/07/14 14:46:05;;;;;;;;;;;34.90;53.10;;;33.42;19.89;95438.44;10420864;28;1890;-82
2022/07/14 14:51:12;;;;;;;;;;;34.60;54.10;;;33.19;20.65;95439.25;10406755;28;1906;-81
2022/07/14 14:56:15;;;;;;;;;;;33.90;54.90;;;33.30;19.08;95425.91;10397877;28;1858;-81
2022/07/14 15:01:18;;;;;;;;;;;34.00;54.30;;;33.21;19.00;95414.56;10403360;28;1775;-81
2022/07/14 15:06:21;;;;;;;;;;;34.00;53.90;;;32.97;19.40;95424.22;10402946;28;1756;-81
2022/07/14 15:11:25;;;;;;;;;;;33.80;53.50;;;32.70;19.92;95419.53;10403162;28;1959;-82
2022/07/14 15:16:29;;;;;;;;;;;33.50;54.30;;;33.17;19.00;95413.84;10404357;28;2207;-81
2022/07/14 15:21:33;;;;;;;;;;;33.70;53.60;;;33.38;18.89;95407.03;10401246;28;1783;-81
2022/07/14 15:26:35;;;;;;;;;;;33.90;53.50;;;33.08;20.67;95399.69;10405260;28;1843;-83
2022/07/14 15:32:00;;;;;;;;;;;33.90;55.10;;;32.79;20.25;95396.69;10378880;28;1971;-81
2022/07/14 15:37:11;;;;;;;;;;;33.40;55.00;;;33.08;21.75;95391.34;10403796;28;1959;-82
2022/07/14 15:42:18;;;;;;;;;;;33.50;55.20;;;32.88;20.51;95379.44;10364943;28;1833;-78
2022/07/14 15:47:21;;;;;;;;;;;33.50;55.40;;;32.75;21.29;95373.69;10400833;28;1815;-76
2022/07/14 15:52:25;;;;;;;;;;;33.40;56.00;;;33.56;20.76;95359.31;10416848;28;1983;-79
2022/07/14 15:57:29;;;;;;;;;;;33.70;56.00;;;33.89;20.29;95351.75;10410787;28;1783;-77
2022/07/14 16:02:32;;;;;;;;;;;34.10;55.80;;;33.69;20.79;95343.47;10402735;28;1744;-79
2022/07/14 16:07:35;;;;;;;;;;;34.20;55.50;;;32.75;21.68;95332.72;10417358;28;1798;-78
2022/07/14 16:12:39;;;;;;;;;;;33.70;55.60;;;32.71;21.68;95323.69;10408826;28;1964;-78
2022/07/14 16:17:41;;;;;;;;;;;33.30;56.50;;;32.63;21.98;95325.03;10413752;28;1875;-79
2022/07/14 16:22:47;;;;;;;;;;;33.30;56.40;;;32.07;22.49;95316.53;10419007;28;1963;-78
2022/07/14 16:27:50;;;;;;;;;;;33.00;57.20;;;31.53;23.41;95322.16;10415407;28;1831;-77
2022/07/14 16:32:52;;;;;;;;;;;32.50;57.70;;;31.50;23.70;95328.56;10418512;28;1954;-79
2022/07/14 16:37:55;;;;;;;;;;;32.30;58.60;;;31.31;24.29;95326.47;10402680;28;1818;-79
2022/07/14 16:42:59;;;;;;;;;;;32.00;59.10;;;31.58;23.71;95352.22;10375202;28;1816;-78
2022/07/14 16:48:02;;;;;;;;;;;32.20;58.70;;;31.24;24.49;95329.31;10397862;28;1803;-78
2022/07/14 16:53:05;;;;;;;;;;;32.00;59.40;;;30.35;27.06;95328.41;10398038;28;1902;-79
2022/07/14 16:58:08;;;;;;;;;;;31.50;61.00;;;29.22;30.14;95342.72;10391326;28;1895;-78
2022/07/14 17:03:18;;;;;;;;;;;30.50;63.90;;;29.02;31.19;95339.69;10391649;28;1740;-76
2022/07/14 17:08:25;;;;;;;;;;;29.80;65.50;;;29.05;31.30;95322.25;10393396;28;1842;-79
2022/07/14 17:13:29;;;;;;;;;;;;;;;29.37;31.23;95320.50;10389546;28;1979;-77
2022/07/14 17:18:32;;;;;;;;;;;;;;;29.56;31.06;95326.31;10394639;28;1851;-79
2022/07/14 17:23:35;;;;;;;;;;;29.80;66.80;;;29.98;30.44;95315.28;10398707;28;1846;-78
2022/07/14 17:28:39;;;;;;;;;;;;;;;30.17;30.04;95311.16;10372076;28;1862;-79
2022/07/14 17:33:41;;;;;;;;;;;30.60;66.30;;;30.24;29.78;95316.63;10387374;28;1975;-78
2022/07/14 17:38:44;;;;;;;;;;;30.60;66.00;;;29.84;30.04;95332.84;10386546;28;1922;-79
2022/07/14 17:43:47;;;;;;;;;;;30.80;65.50;;;29.45;30.98;95336.63;10389566;28;1851;-78
2022/07/14 17:48:49;;;;;;;;;;;30.50;66.60;;;29.26;31.22;95328.84;10380850;28;2210;-79
2022/07/14 17:53:53;;;;;;;;;;;30.00;67.30;;;29.11;31.82;95324.59;10418051;28;1977;-77
2022/07/14 17:59:16;;;;;;;;;;;29.80;67.10;;;28.91;32.20;95333.38;10404641;28;2005;-78
2022/07/14 18:04:19;;;;;;;;;;;29.70;67.50;;;28.86;32.29;95325.50;10388849;28;1852;-78
2022/07/14 18:09:23;;;;;;;;;;;29.60;67.70;;;28.68;32.71;95330.31;10416277;28;1827;-77
2022/07/14 18:14:26;;;;;;;;;;;29.50;68.20;;;28.55;33.49;95341.81;10404821;28;1977;-79
2022/07/14 18:19:32;;;;;;;;;;;29.40;68.90;;;28.43;33.58;95347.78;10408268;28;1831;-78
2022/07/14 18:24:34;;;;;;;;;;;29.20;69.30;;;28.19;34.25;95337.56;10419970;28;1862;-77
2022/07/14 18:29:38;;;;;;;;;;;29.00;69.80;;;27.97;34.75;95343.09;10419582;28;1943;-78
2022/07/14 18:34:41;;;;;;;;;;;28.90;69.90;;;27.79;35.32;95353.38;10422454;28;1984;-78
2022/07/14 18:39:44;;;;;;;;;;;28.70;70.60;;;27.67;35.55;95354.50;10400079;28;1874;-78
2022/07/14 18:50:07;;;;;;;;;;;28.40;71.90;;;27.25;36.94;95366.31;10399897;28;1772;-79
2022/07/14 18:55:12;;;;;;;;;;;28.20;72.40;;;27.11;37.10;95369.81;10401253;28;1922;-78
2022/07/14 19:00:16;;;;;;;;;;;28.00;72.90;;;26.94;37.99;95368.56;10376586;28;2006;-78
2022/07/14 19:05:19;;;;;;;;;;;27.90;72.90;;;26.85;38.30;95381.13;10403203;28;2258;-78
2022/07/14 19:10:23;;;;;;;;;;;27.80;73.40;;;26.67;38.82;95383.81;10401648;28;2014;-79
2022/07/14 19:15:27;;;;;;;;;;;27.60;73.90;;;26.44;39.16;95392.34;10400519;28;1920;-77
2022/07/14 19:20:30;;;;;;;;;;;27.50;74.40;;;26.21;40.05;95389.00;10400839;28;1881;-79
2022/07/14 19:25:34;;;;;;;;;;;27.30;75.00;;;25.97;40.61;95395.94;10403382;28;1748;-78
2022/07/14 19:30:37;;;;;;;;;;;27.10;75.70;;;25.80;40.98;95403.66;10403978;28;1799;-78
2022/07/14 19:35:41;;;;;;;;;;;26.90;75.80;;;25.68;41.43;95411.41;10399755;28;1973;-77
2022/07/14 19:40:44;;;;;;;;;;;26.70;76.40;;;25.62;41.92;95424.72;10402240;28;1826;-78
2022/07/14 19:45:47;;;;;;;;;;;26.60;77.00;;;25.56;42.34;95428.97;10400783;28;1963;-78
2022/07/14 19:50:51;;;;;;;;;;;26.50;77.60;;;25.30;43.03;95440.88;10400631;28;2034;-77
2022/07/14 19:55:53;;;;;;;;;;;26.40;77.90;;;25.15;43.65;95456.44;10402073;28;1914;-79
2022/07/14 20:00:57;;;;;;;;;;;26.20;78.60;;;25.19;43.38;95471.00;10396669;28;1878;-79
2022/07/14 20:06:20;;;;;;;;;;;26.10;79.10;;;25.36;42.16;95496.38;10400833;28;1878;-74
2022/07/14 20:11:23;;;;;;;;;;;26.10;78.40;;;25.18;43.73;95512.66;10400434;28;1910;-78
2022/07/14 20:16:26;;;;;;;;;;;26.00;79.40;;;24.86;45.75;95526.75;10394872;28;1894;-79
2022/07/14 20:21:30;;;;;;;;;;;25.80;80.50;;;24.56;46.98;95523.97;10417614;28;1875;-77
2022/07/14 20:26:34;;;;;;;;;;;25.50;82.20;;;24.27;48.50;95539.94;10401323;28;1898;-78
2022/07/14 20:36:57;;;;;;;;;;;25.00;84.60;;;23.90;50.63;95555.38;10399451;28;1913;-77
2022/07/14 20:42:03;;;;;;;;;;;24.70;85.70;;;23.69;51.66;95567.53;10398149;28;1776;-78
2022/07/14 20:47:17;;;;;;;;;;;24.60;86.20;;;23.43;53.14;95594.81;10396756;28;1868;-78
2022/07/14 20:52:23;;;;;;;;;;;24.30;87.20;;;23.19;54.51;95585.69;10400670;28;2081;-77
2022/07/14 20:57:26;;;;;;;;;;;24.10;88.30;;;22.96;56.27;95592.22;10397960;28;1850;-79
2022/07/14 21:02:29;;;;;;;;;;;23.90;89.20;;;22.70;58.28;95600.97;10400607;28;1822;-79
2022/07/14 21:07:33;;;;;;;;;;;23.60;90.40;;;22.50;59.91;95625.56;10407725;28;1858;-79
2022/07/14 21:12:36;;;;;;;;;;;23.40;91.70;;;22.33;61.52;95647.81;10406562;28;1981;-78
2022/07/14 21:17:40;;;;;;;;;;;23.30;92.60;;;;;;10409573;28;1606;-80
2022/07/14 21:22:44;;;;;;;;;;;23.10;92.30;;;22.00;59.88;95662.56;10397680;28;1851;-78
2022/07/14 21:27:47;;;;;;;;;;;22.90;91.70;;;21.89;59.88;95664.22;10392621;28;1837;-80
2022/07/14 21:32:50;;;;;;;;;;;22.80;91.90;;;21.77;59.73;95684.22;10387863;28;1910;-80
2022/07/14 21:37:54;;;;;;;;;;;22.70;91.90;;;21.68;60.08;95694.47;10389962;28;1887;-79
2022/07/14 21:42:57;;;;;;;;;;;22.50;92.00;;;21.56;60.10;95700.78;10404258;28;1847;-79
2022/07/14 21:48:01;;;;;;;;;;;22.40;92.10;;;21.51;59.72;95706.50;10400746;28;1852;-77
2022/07/14 21:53:04;;;;;;;;;;;22.30;92.00;;;21.40;59.64;95710.84;10402142;28;1982;-80
2022/07/14 21:58:07;;;;;;;;;;;22.30;92.00;;;21.30;60.41;95716.78;10405819;28;1815;-79
2022/07/14 22:03:11;;;;;;;;;;;22.20;92.20;;;21.19;61.21;95726.56;10397148;28;1966;-79
2022/07/14 22:08:14;;;;;;;;;;;22.10;92.80;;;21.14;61.47;95735.00;10400321;28;1847;-79
2022/07/14 22:13:17;;;;;;;;;;;22.00;93.10;;;21.09;60.77;95744.22;10399531;28;2002;-79
2022/07/14 22:18:20;;;;;;;;;;;22.00;92.90;;;21.10;59.88;95750.47;10399931;28;1827;-78
2022/07/14 22:23:33;;;;;;;;;;;21.90;92.50;;;20.94;60.01;95762.09;10399609;28;1870;-79
2022/07/14 22:28:36;;;;;;;;;;;21.80;92.40;;;20.95;59.00;95766.41;10401508;28;1873;-79
2022/07/14 22:33:40;;;;;;;;;;;21.70;92.10;;;20.86;58.04;95779.38;10399258;28;1902;-79
2022/07/14 22:38:44;;;;;;;;;;;21.70;91.70;;;20.77;57.63;95776.75;10405200;28;1860;-79
2022/07/14 22:43:47;;;;;;;;;;;21.60;91.20;;;20.75;56.73;95784.50;10402489;28;1894;-79
2022/07/14 22:48:50;;;;;;;;;;;21.60;90.90;;;20.74;56.56;95782.91;10402297;28;1874;-79
2022/07/14 22:53:54;;;;;;;;;;;21.50;90.70;;;20.65;56.68;95784.13;10407428;28;1981;-79
2022/07/14 22:58:57;;;;;;;;;;;21.50;90.70;;;20.61;56.91;95805.03;10399601;28;1787;-79
2022/07/14 23:04:00;;;;;;;;;;;21.30;90.80;;;20.52;57.36;95797.72;10392649;28;1798;-78
2022/07/14 23:09:03;;;;;;;;;;;21.40;91.10;;;20.52;57.86;95795.00;10402666;28;1825;-80
2022/07/14 23:14:07;;;;;;;;;;;21.40;91.50;;;20.41;57.96;95796.50;10426462;28;1977;-77
2022/07/14 23:19:10;;;;;;;;;;;21.20;91.40;;;20.37;57.29;95803.81;10448531;28;1751;-80
2022/07/14 23:24:13;;;;;;;;;;;21.20;91.30;;;20.41;56.75;95812.09;10441613;28;1558;-77
2022/07/14 23:29:15;;;;;;;;;;;21.20;91.20;;;20.41;56.96;95807.44;10409676;28;1847;-81
2022/07/14 23:34:19;;;;;;;;;;;20.20;90.70;;;20.45;56.91;95816.59;10398258;28;1985;-82
2022/07/14 23:39:22;;;;;;;;;;;21.20;91.30;;;20.64;55.71;95837.16;10396443;28;1791;-82
2022/07/14 23:44:27;;;;;;;;;;;21.30;90.60;;;20.59;57.36;95829.16;10402215;28;1983;-81
2022/07/14 23:49:30;;;;;;;;;;;21.40;91.50;;;20.14;64.31;95824.38;10404416;28;1811;-81
2022/07/14 23:54:33;;;;;;;;;;;21.10;94.70;;;19.91;70.00;95826.63;10399728;28;1914;-80
2022/07/14 23:59:37;;;;;;;;;;;20.90;97.00;;;19.76;64.96;95836.19;10401227;28;1843;-81
